Time;durP1;ratioP1;P1;durP2;ratioP2;P2;SDS_P1;SDS_P2;PMS_P1;PMS_P2;Temp;Humidity;BMP_temperature;BMP_pressure;BME280_temperature;BME280_humidity;BME280_pressure;Samples;Min_cycle;Max_cycle;Signal;HPM_P1;HPM_P2
2022/04/24 00:00:00;;;;;;;5.70;3.22;;;;;;;;;;5051918;28;20021;-37
2022/04/24 00:02:26;;;;;;;6.60;3.28;;;;;;;;;;5051804;28;20503;-37
2022/04/24 00:04:51;;;;;;;5.47;3.58;;;;;;;;;;5051667;28;20028;-36
2022/04/24 00:07:17;;;;;;;6.68;3.00;;;;;;;;;;5051750;28;20028;-36
2022/04/24 00:09:43;;;;;;;5.20;3.03;;;;;;;;;;5051690;28;20017;-37
2022/04/24 00:12:09;;;;;;;3.13;2.55;;;;;;;;;;5051381;28;20052;-36
2022/04/24 00:14:35;;;;;;;3.33;2.45;;;;;;;;;;5052003;28;20099;-37
2022/04/24 00:17:01;;;;;;;3.40;2.58;;;;;;;;;;5051639;28;20445;-37
2022/04/24 00:19:26;;;;;;;4.47;2.83;;;;;;;;;;5051739;28;20525;-37
2022/04/24 00:21:52;;;;;;;2.92;2.10;;;;;;;;;;5051607;28;20101;-37
2022/04/24 00:24:17;;;;;;;2.95;2.55;;;;;;;;;;5051442;28;20103;-37
2022/04/24 00:26:42;;;;;;;3.33;2.50;;;;;;;;;;5051500;28;20086;-36
2022/04/24 00:29:08;;;;;;;3.55;2.63;;;;;;;;;;5050533;28;20112;-37
2022/04/24 00:31:33;;;;;;;5.55;3.00;;;;;;;;;;5051382;28;20365;-37
2022/04/24 00:33:59;;;;;;;4.95;2.88;;;;;;;;;;5051736;28;20049;-37
2022/04/24 00:36:24;;;;;;;5.28;2.85;;;;;;;;;;5049406;28;20033;-37
2022/04/24 00:38:50;;;;;;;3.00;2.10;;;;;;;;;;5051289;28;20020;-36
2022/04/24 00:41:15;;;;;;;5.35;2.80;;;;;;;;;;5051325;28;20116;-37
2022/04/24 00:43:41;;;;;;;3.70;2.97;;;;;;;;;;5051227;28;20013;-37
2022/04/24 00:46:47;;;;;;;4.05;2.72;;;;;;;;;;5050910;28;20060;-37
2022/04/24 00:49:13;;;;;;;2.85;2.47;;;;;;;;;;5051094;28;20098;-37
2022/04/24 00:51:38;;;;;;;3.10;2.33;;;;;;;;;;5051153;28;20037;-36
2022/04/24 00:54:08;;;;;;;4.18;2.60;;;;;;;;;;5051110;28;20045;-37
2022/04/24 00:56:38;;;;;;;3.63;2.63;;;;;;;;;;5051164;28;20071;-37
2022/04/24 00:59:04;;;;;;;3.15;2.42;;;;;;;;;;5051068;28;20427;-36
2022/04/24 01:01:30;;;;;;;3.00;2.33;;;;;;;;;;5051281;28;20075;-36
2022/04/24 01:03:59;;;;;;;7.88;2.35;;;;;;;;;;5051079;28;20037;-37
2022/04/24 01:06:25;;;;;;;2.35;2.15;;;;;;;;;;5050940;28;20033;-37
2022/04/24 01:08:51;;;;;;;3.88;2.50;;;;;;;;;;5051063;28;20064;-36
2022/04/24 01:11:17;;;;;;;3.40;2.60;;;;;;;;;;5050961;28;20087;-37
2022/04/24 01:13:42;;;;;;;9.95;3.05;;;;;;;;;;5051058;28;20029;-37
2022/04/24 01:16:08;;;;;;;3.97;2.47;;;;;;;;;;5050775;28;20391;-37
2022/04/24 01:18:35;;;;;;;4.90;2.92;;;;;;;;;;5049729;28;20040;-37
2022/04/24 01:21:07;;;;;;;3.15;2.50;;;;;;;;;;5050979;28;20047;-37
2022/04/24 01:23:34;;;;;;;4.20;3.03;;;;;;;;;;5051239;28;20041;-37
2022/04/24 01:25:59;;;;;;;3.45;3.00;;;;;;;;;;5051117;28;20037;-37
2022/04/24 01:28:24;;;;;;;3.38;2.53;;;;;;;;;;5050714;28;20036;-38
2022/04/24 01:30:50;;;;;;;4.90;2.92;;;;;;;;;;5051138;28;20021;-37
2022/04/24 01:33:15;;;;;;;5.00;3.17;;;;;;;;;;5051023;28;20380;-37
2022/04/24 01:35:41;;;;;;;4.05;3.17;;;;;;;;;;5050769;28;20498;-37
2022/04/24 01:38:06;;;;;;;3.75;2.60;;;;;;;;;;5050772;28;20104;-38
2022/04/24 01:40:32;;;;;;;3.58;2.53;;;;;;;;;;5050994;28;20106;-37
2022/04/24 01:42:57;;;;;;;3.90;2.58;;;;;;;;;;5050662;28;20032;-37
2022/04/24 01:45:23;;;;;;;3.03;2.58;;;;;;;;;;5050637;28;20060;-36
2022/04/24 01:47:48;;;;;;;2.78;2.20;;;;;;;;;;5053537;28;20033;-37
2022/04/24 01:50:14;;;;;;;4.50;2.80;;;;;;;;;;5053003;28;20391;-37
2022/04/24 01:52:39;;;;;;;3.88;3.25;;;;;;;;;;5054511;28;20494;-38
2022/04/24 01:55:05;;;;;;;3.03;2.33;;;;;;;;;;5054534;28;20451;-36
2022/04/24 01:57:30;;;;;;;5.82;2.60;;;;;;;;;;5053247;28;20029;-36
2022/04/24 01:59:55;;;;;;;4.32;2.80;;;;;;;;;;5054214;28;20029;-37
2022/04/24 02:02:21;;;;;;;3.65;2.60;;;;;;;;;;5054047;28;20384;-36
2022/04/24 02:04:46;;;;;;;2.85;2.58;;;;;;;;;;5054098;28;20027;-36
2022/04/24 02:07:11;;;;;;;4.07;2.50;;;;;;;;;;5054285;28;20072;-36
2022/04/24 02:09:39;;;;;;;5.28;2.88;;;;;;;;;;5054299;28;20025;-36
2022/04/24 02:12:05;;;;;;;4.20;2.13;;;;;;;;;;5053758;28;20080;-36
2022/04/24 02:14:30;;;;;;;3.28;2.10;;;;;;;;;;5053996;28;20399;-36
2022/04/24 02:16:56;;;;;;;3.50;1.85;;;;;;;;;;5053948;28;20033;-36
2022/04/24 02:19:21;;;;;;;2.88;2.13;;;;;;;;;;5053655;28;20024;-39
2022/04/24 02:21:47;;;;;;;6.97;2.45;;;;;;;;;;5054018;28;20544;-37
2022/04/24 02:24:12;;;;;;;3.92;2.95;;;;;;;;;;5053704;28;20021;-36
2022/04/24 02:26:38;;;;;;;4.72;2.22;;;;;;;;;;5053586;28;20410;-37
2022/04/24 02:29:03;;;;;;;3.40;2.25;;;;;;;;;;5053705;28;20032;-36
2022/04/24 02:31:28;;;;;;;3.95;1.98;;;;;;;;;;5053435;28;20084;-37
2022/04/24 02:33:54;;;;;;;3.88;2.47;;;;;;;;;;5052259;28;20013;-40
2022/04/24 02:36:19;;;;;;;2.47;1.75;;;;;;;;;;5053745;28;20122;-36
2022/04/24 02:38:45;;;;;;;6.60;3.00;;;;;;;;;;5053448;28;20075;-37
2022/04/24 02:41:10;;;;;;;4.90;2.22;;;;;;;;;;5053280;28;20448;-36
2022/04/24 02:43:36;;;;;;;3.50;1.80;;;;;;;;;;5053308;28;20024;-43
2022/04/24 02:46:01;;;;;;;2.97;2.13;;;;;;;;;;5053500;28;20047;-36
2022/04/24 02:48:27;;;;;;;5.20;2.78;;;;;;;;;;5053221;28;20020;-36
2022/04/24 02:50:53;;;;;;;6.18;2.28;;;;;;;;;;5053198;28;20071;-36
2022/04/24 02:53:18;;;;;;;3.33;2.22;;;;;;;;;;5051788;28;20027;-36
2022/04/24 02:55:44;;;;;;;3.67;2.65;;;;;;;;;;5053361;28;20037;-37
2022/04/24 02:58:09;;;;;;;3.50;2.00;;;;;;;;;;5052379;28;20258;-36
2022/04/24 03:00:43;;;;;;;4.47;2.33;;;;;;;;;;5053151;28;20490;-36
2022/04/24 03:03:09;;;;;;;4.28;2.75;;;;;;;;;;5052838;28;20021;-36
2022/04/24 03:05:34;;;;;;;3.83;2.30;;;;;;;;;;5052911;28;20127;-37
2022/04/24 03:08:00;;;;;;;2.53;1.83;;;;;;;;;;5051554;28;20049;-37
2022/04/24 03:10:26;;;;;;;2.47;1.98;;;;;;;;;;5052819;28;20039;-37
2022/04/24 03:12:51;;;;;;;5.10;2.25;;;;;;;;;;5052530;28;20045;-37
2022/04/24 03:15:17;;;;;;;2.33;1.63;;;;;;;;;;5052576;28;20531;-36
2022/04/24 03:17:43;;;;;;;1.95;1.20;;;;;;;;;;5052967;28;20032;-37
2022/04/24 03:20:09;;;;;;;2.58;1.30;;;;;;;;;;5052869;28;20055;-37
2022/04/24 03:22:35;;;;;;;5.93;1.52;;;;;;;;;;5052899;28;20043;-37
2022/04/24 03:25:03;;;;;;;3.38;1.80;;;;;;;;;;5052614;28;20017;-37
2022/04/24 03:27:28;;;;;;;2.47;1.52;;;;;;;;;;5052397;28;20171;-37
2022/04/24 03:29:54;;;;;;;2.00;1.40;;;;;;;;;;5052519;28;20111;-36
2022/04/24 03:32:19;;;;;;;4.60;1.60;;;;;;;;;;5052549;28;20113;-37
2022/04/24 03:34:45;;;;;;;1.55;1.02;;;;;;;;;;5052519;28;20028;-36
2022/04/24 03:37:11;;;;;;;3.75;1.10;;;;;;;;;;5051282;28;20037;-37
2022/04/24 03:39:36;;;;;;;1.13;0.82;;;;;;;;;;5052318;28;20016;-37
2022/04/24 03:42:03;;;;;;;1.73;1.05;;;;;;;;;;5052543;28;20029;-36
2022/04/24 03:44:32;;;;;;;0.73;0.68;;;;;;;;;;5052138;28;20019;-36
2022/04/24 03:46:58;;;;;;;3.80;1.27;;;;;;;;;;5052197;28;20056;-37
2022/04/24 03:49:23;;;;;;;1.48;0.75;;;;;;;;;;5052345;28;20025;-36
2022/04/24 03:51:49;;;;;;;1.80;0.60;;;;;;;;;;5052008;28;20462;-37
2022/04/24 03:54:14;;;;;;;7.00;1.48;;;;;;;;;;5052345;28;20027;-37
2022/04/24 03:56:40;;;;;;;1.63;0.98;;;;;;;;;;5051147;28;20383;-36
2022/04/24 03:59:05;;;;;;;1.10;0.55;;;;;;;;;;5051892;28;20021;-36
2022/04/24 04:01:30;;;;;;;2.28;0.88;;;;;;;;;;5051843;28;20025;-36
2022/04/24 04:03:57;;;;;;;3.08;0.55;;;;;;;;;;5051900;28;20474;-37
2022/04/24 04:06:23;;;;;;;1.50;0.70;;;;;;;;;;5051683;28;20090;-37
2022/04/24 04:08:48;;;;;;;2.15;0.63;;;;;;;;;;5051859;28;20021;-37
2022/04/24 04:11:13;;;;;;;3.75;0.70;;;;;;;;;;5051285;28;20116;-37
2022/04/24 04:13:39;;;;;;;2.03;0.43;;;;;;;;;;5051767;28;20498;-37
2022/04/24 04:16:04;;;;;;;0.70;0.47;;;;;;;;;;5050519;28;20045;-36
2022/04/24 04:18:30;;;;;;;2.75;0.45;;;;;;;;;;5051603;28;20024;-36
2022/04/24 04:20:55;;;;;;;0.50;0.30;;;;;;;;;;5051609;28;20424;-36
2022/04/24 04:23:20;;;;;;;1.73;0.60;;;;;;;;;;5051658;28;20096;-36
2022/04/24 04:25:46;;;;;;;1.85;0.40;;;;;;;;;;5051829;28;20080;-37
2022/04/24 04:28:11;;;;;;;4.40;0.68;;;;;;;;;;5051400;28;20476;-36
2022/04/24 04:30:37;;;;;;;3.40;0.40;;;;;;;;;;5051481;28;20125;-36
2022/04/24 04:33:02;;;;;;;0.43;0.40;;;;;;;;;;5051640;28;20024;-37
2022/04/24 04:35:27;;;;;;;3.08;0.20;;;;;;;;;;5051540;28;20041;-37
2022/04/24 04:37:53;;;;;;;2.35;0.68;;;;;;;;;;5051722;28;20115;-37
2022/04/24 04:40:20;;;;;;;2.53;0.30;;;;;;;;;;5051275;28;20466;-36
2022/04/24 04:42:46;;;;;;;2.38;0.30;;;;;;;;;;5051255;28;20056;-36
2022/04/24 04:45:11;;;;;;;1.25;0.57;;;;;;;;;;5051198;28;20052;-36
2022/04/24 04:47:37;;;;;;;2.40;0.57;;;;;;;;;;5051192;28;20098;-36
2022/04/24 04:50:03;;;;;;;2.35;0.52;;;;;;;;;;5050029;28;20482;-37
2022/04/24 04:52:28;;;;;;;1.20;0.28;;;;;;;;;;5051415;28;20098;-37
2022/04/24 04:54:53;;;;;;;7.95;0.40;;;;;;;;;;5051422;28;20126;-36
2022/04/24 04:57:19;;;;;;;0.52;0.40;;;;;;;;;;5051147;28;20485;-36
2022/04/24 04:59:44;;;;;;;7.78;0.47;;;;;;;;;;5051518;28;20040;-36
2022/04/24 05:02:10;;;;;;;8.88;0.65;;;;;;;;;;5050965;28;20014;-36
2022/04/24 05:04:35;;;;;;;0.50;0.50;;;;;;;;;;5051129;28;20049;-37
2022/04/24 05:07:00;;;;;;;0.20;0.17;;;;;;;;;;5051077;28;20029;-37
2022/04/24 05:09:26;;;;;;;3.47;0.55;;;;;;;;;;5051024;28;20112;-37
2022/04/24 05:11:51;;;;;;;0.30;0.20;;;;;;;;;;5050925;28;20125;-37
2022/04/24 05:14:17;;;;;;;0.60;0.30;;;;;;;;;;5049731;28;20032;-37
2022/04/24 05:16:42;;;;;;;7.18;0.75;;;;;;;;;;5051052;28;20053;-36
2022/04/24 05:19:08;;;;;;;2.47;0.32;;;;;;;;;;5050971;28;20037;-37
2022/04/24 05:21:33;;;;;;;0.55;0.30;;;;;;;;;;5051756;28;20028;-36
2022/04/24 05:24:00;;;;;;;2.20;0.68;;;;;;;;;;5054856;28;20028;-36
2022/04/24 05:26:25;;;;;;;6.13;0.50;;;;;;;;;;5054904;28;20368;-37
2022/04/24 05:28:51;;;;;;;0.47;0.30;;;;;;;;;;5054809;28;20036;-37
2022/04/24 05:31:16;;;;;;;1.08;0.38;;;;;;;;;;5054946;28;20017;-37
2022/04/24 05:33:42;;;;;;;0.93;0.50;;;;;;;;;;5055348;28;20023;-37
2022/04/24 05:36:07;;;;;;;2.17;0.45;;;;;;;;;;5055027;28;20113;-37
2022/04/24 05:38:33;;;;;;;2.70;0.38;;;;;;;;;;5054808;28;20029;-37
2022/04/24 05:40:58;;;;;;;2.65;0.57;;;;;;;;;;5054722;28;20028;-37
2022/04/24 05:43:23;;;;;;;2.22;0.50;;;;;;;;;;5054484;28;20430;-37
2022/04/24 05:45:49;;;;;;;1.05;1.05;;;;;;;;;;5054684;28;20075;-37
2022/04/24 05:48:15;;;;;;;2.58;0.52;;;;;;;;;;5054459;28;20060;-36
2022/04/24 05:50:41;;;;;;;0.90;0.30;;;;;;;;;;5054410;28;20459;-37
2022/04/24 05:53:07;;;;;;;3.45;0.60;;;;;;;;;;5053459;28;20039;-37
2022/04/24 05:55:32;;;;;;;0.88;0.52;;;;;;;;;;5054854;28;20439;-37
2022/04/24 05:57:57;;;;;;;0.43;0.28;;;;;;;;;;5054347;28;20371;-37
2022/04/24 06:00:23;;;;;;;4.70;0.88;;;;;;;;;;5052854;28;20028;-37
2022/04/24 06:02:49;;;;;;;2.47;0.90;;;;;;;;;;5054441;28;20033;-36
2022/04/24 06:05:14;;;;;;;1.23;0.40;;;;;;;;;;5054338;28;20095;-37
2022/04/24 06:07:40;;;;;;;0.70;0.30;;;;;;;;;;5054148;28;20033;-42
2022/04/24 06:10:06;;;;;;;1.67;0.40;;;;;;;;;;5054002;28;20017;-37
2022/04/24 06:12:32;;;;;;;0.47;0.47;;;;;;;;;;5052498;28;20584;-37
2022/04/24 06:15:02;;;;;;;0.55;0.32;;;;;;;;;;5054216;28;20029;-37
2022/04/24 06:17:28;;;;;;;0.60;0.30;;;;;;;;;;5053906;28;20039;-37
2022/04/24 06:19:53;;;;;;;3.50;0.50;;;;;;;;;;5053938;28;20017;-36
2022/04/24 06:22:18;;;;;;;0.35;0.32;;;;;;;;;;5053691;28;20037;-37
2022/04/24 06:24:44;;;;;;;1.17;0.47;;;;;;;;;;5053743;28;20379;-37
2022/04/24 06:27:09;;;;;;;2.70;0.40;;;;;;;;;;5053712;28;20098;-36
2022/04/24 06:29:35;;;;;;;1.17;0.47;;;;;;;;;;5053669;28;20029;-39
2022/04/24 06:32:01;;;;;;;2.80;0.40;;;;;;;;;;5053889;28;20064;-37
2022/04/24 06:34:26;;;;;;;0.70;0.40;;;;;;;;;;5053692;28;20016;-36
2022/04/24 06:36:52;;;;;;;0.57;0.30;;;;;;;;;;5053827;28;20100;-37
2022/04/24 06:39:17;;;;;;;2.47;0.75;;;;;;;;;;5053448;28;20024;-37
2022/04/24 06:41:43;;;;;;;3.53;0.32;;;;;;;;;;5053215;28;20040;-37
2022/04/24 06:44:11;;;;;;;0.73;0.20;;;;;;;;;;5053391;28;20498;-37
2022/04/24 06:46:36;;;;;;;0.32;0.32;;;;;;;;;;5053307;28;20045;-37
2022/04/24 06:49:02;;;;;;;1.23;0.20;;;;;;;;;;5053332;28;20027;-37
2022/04/24 06:51:28;;;;;;;0.73;0.30;;;;;;;;;;5053259;28;20033;-36
2022/04/24 06:53:53;;;;;;;2.58;0.40;;;;;;;;;;5053227;28;20041;-37
2022/04/24 06:56:19;;;;;;;0.30;0.30;;;;;;;;;;5053379;28;20091;-37
2022/04/24 06:58:44;;;;;;;0.43;0.43;;;;;;;;;;5053186;28;20422;-36
2022/04/24 07:01:10;;;;;;;0.47;0.32;;;;;;;;;;5053101;28;20044;-37
2022/04/24 07:03:36;;;;;;;3.03;0.65;;;;;;;;;;5053010;28;20025;-36
2022/04/24 07:06:02;;;;;;;2.70;0.60;;;;;;;;;;5053173;28;20483;-36
2022/04/24 07:08:29;;;;;;;1.77;0.43;;;;;;;;;;5053181;28;20479;-36
2022/04/24 07:10:54;;;;;;;0.52;0.43;;;;;;;;;;5052834;28;20024;-36
2022/04/24 07:13:20;;;;;;;0.75;0.47;;;;;;;;;;5052594;28;20127;-36
2022/04/24 07:15:45;;;;;;;6.07;0.70;;;;;;;;;;5052899;28;20029;-36
2022/04/24 07:18:11;;;;;;;4.07;0.70;;;;;;;;;;5051397;28;20098;-36
2022/04/24 07:20:37;;;;;;;1.80;0.52;;;;;;;;;;5052782;28;20029;-36
2022/04/24 07:23:04;;;;;;;0.63;0.22;;;;;;;;;;5052698;28;20021;-36
2022/04/24 07:25:44;;;;;;;5.22;0.40;;;;;;;;;;5051235;28;20083;-36
2022/04/24 07:28:17;;;;;;;1.50;0.63;;;;;;;;;;5052949;28;20538;-36
2022/04/24 07:30:43;;;;;;;0.20;0.20;;;;;;;;;;5052844;28;20036;-36
2022/04/24 07:33:08;;;;;;;2.83;0.50;;;;;;;;;;5051468;28;20029;-36
2022/04/24 07:35:35;;;;;;;0.22;0.22;;;;;;;;;;5052681;28;20029;-36
2022/04/24 07:38:00;;;;;;;0.77;0.52;;;;;;;;;;5052781;28;20024;-36
2022/04/24 07:40:27;;;;;;;3.08;0.45;;;;;;;;;;5052273;28;20023;-37
2022/04/24 07:43:03;;;;;;;5.82;1.17;;;;;;;;;;5052303;28;20027;-36
2022/04/24 07:45:30;;;;;;;0.95;0.40;;;;;;;;;;5051609;28;20036;-36
2022/04/24 07:47:57;;;;;;;0.77;0.40;;;;;;;;;;5052150;28;20116;-37
2022/04/24 07:50:23;;;;;;;0.20;0.20;;;;;;;;;;5050841;28;20025;-37
2022/04/24 07:52:49;;;;;;;0.80;0.45;;;;;;;;;;5052601;28;20025;-36
2022/04/24 07:55:19;;;;;;;0.30;0.30;;;;;;;;;;5052288;28;20471;-36
2022/04/24 07:57:46;;;;;;;1.05;0.30;;;;;;;;;;5052211;28;20353;-36
2022/04/24 08:00:13;;;;;;;0.50;0.30;;;;;;;;;;5051915;28;20036;-36
2022/04/24 08:03:04;;;;;;;2.03;0.30;;;;;;;;;;5051921;28;20490;-37
2022/04/24 08:05:31;;;;;;;0.13;0.13;;;;;;;;;;5052396;28;20494;-36
2022/04/24 08:07:58;;;;;;;0.65;0.30;;;;;;;;;;5051750;28;20017;-36
2022/04/24 08:10:24;;;;;;;0.70;0.57;;;;;;;;;;5050438;28;20445;-37
2022/04/24 08:12:50;;;;;;;0.20;0.20;;;;;;;;;;5051604;28;20045;-36
2022/04/24 08:15:16;;;;;;;1.83;0.50;;;;;;;;;;5051828;28;20542;-36
2022/04/24 08:17:41;;;;;;;1.10;0.10;;;;;;;;;;5051743;28;20028;-36
2022/04/24 08:20:08;;;;;;;3.00;0.30;;;;;;;;;;5051675;28;20025;-36
2022/04/24 08:22:40;;;;;;;3.20;0.38;;;;;;;;;;5051484;28;20021;-36
2022/04/24 08:25:07;;;;;;;0.70;0.30;;;;;;;;;;5051645;28;20035;-36
2022/04/24 08:27:32;;;;;;;0.52;0.30;;;;;;;;;;5051489;28;20112;-36
2022/04/24 08:29:58;;;;;;;0.45;0.30;;;;;;;;;;5050221;28;20112;-36
2022/04/24 08:32:25;;;;;;;2.30;0.52;;;;;;;;;;5051634;28;20386;-37
2022/04/24 08:34:51;;;;;;;2.30;0.38;;;;;;;;;;5051529;28;20029;-36
2022/04/24 08:37:16;;;;;;;0.30;0.30;;;;;;;;;;5051354;28;20021;-37
2022/04/24 08:39:42;;;;;;;3.65;0.40;;;;;;;;;;5051426;28;20041;-36
2022/04/24 08:42:11;;;;;;;3.03;0.30;;;;;;;;;;5051611;28;20048;-36
2022/04/24 08:44:39;;;;;;;0.35;0.35;;;;;;;;;;5049890;28;20064;-36
2022/04/24 08:47:05;;;;;;;0.73;0.30;;;;;;;;;;5051530;28;20476;-36
2022/04/24 08:49:31;;;;;;;0.35;0.30;;;;;;;;;;5051225;28;20055;-37
2022/04/24 08:52:01;;;;;;;0.95;0.38;;;;;;;;;;5051187;28;20025;-36
2022/04/24 08:54:29;;;;;;;1.00;0.50;;;;;;;;;;5051482;28;20029;-38
2022/04/24 08:56:59;;;;;;;2.55;0.25;;;;;;;;;;5052537;28;20081;-36
2022/04/24 08:59:24;;;;;;;2.38;0.40;;;;;;;;;;5055367;28;20029;-36
2022/04/24 09:01:51;;;;;;;1.48;0.40;;;;;;;;;;5053990;28;20082;-36
2022/04/24 09:04:18;;;;;;;3.72;0.40;;;;;;;;;;5053902;28;20430;-36
2022/04/24 09:06:53;;;;;;;3.47;0.50;;;;;;;;;;5055248;28;20028;-36
2022/04/24 09:09:19;;;;;;;0.40;0.40;;;;;;;;;;5055843;28;20056;-36
2022/04/24 09:11:44;;;;;;;9.20;0.63;;;;;;;;;;5055136;28;20060;-36
2022/04/24 09:14:17;;;;;;;0.30;0.30;;;;;;;;;;5055469;28;20441;-36
2022/04/24 09:16:47;;;;;;;0.30;0.20;;;;;;;;;;5055091;28;20034;-36
2022/04/24 09:19:15;;;;;;;1.70;0.20;;;;;;;;;;5055145;28;20032;-36
2022/04/24 09:21:40;;;;;;;1.27;0.30;;;;;;;;;;5055252;28;20025;-36
2022/04/24 09:24:06;;;;;;;4.85;0.38;;;;;;;;;;5055259;28;20155;-37
2022/04/24 09:26:33;;;;;;;4.03;0.63;;;;;;;;;;5054591;28;20530;-36
2022/04/24 09:28:58;;;;;;;3.70;0.30;;;;;;;;;;5055182;28;20020;-37
2022/04/24 09:31:28;;;;;;;1.65;0.55;;;;;;;;;;5054942;28;20150;-37
2022/04/24 09:33:53;;;;;;;3.55;0.40;;;;;;;;;;5055011;28;20470;-36
2022/04/24 09:36:23;;;;;;;3.42;0.43;;;;;;;;;;5054563;28;20025;-36
2022/04/24 09:38:49;;;;;;;0.57;0.30;;;;;;;;;;5054721;28;20029;-36
2022/04/24 09:41:23;;;;;;;0.75;0.22;;;;;;;;;;5054536;28;20071;-36
2022/04/24 09:43:49;;;;;;;0.35;0.20;;;;;;;;;;5054719;28;20430;-36
2022/04/24 09:46:26;;;;;;;2.80;0.50;;;;;;;;;;5054332;28;20028;-36
2022/04/24 09:48:52;;;;;;;1.08;0.40;;;;;;;;;;5054388;28;20108;-36
2022/04/24 09:51:18;;;;;;;0.43;0.30;;;;;;;;;;5054603;28;20060;-36
2022/04/24 09:53:44;;;;;;;2.75;0.38;;;;;;;;;;5054266;28;20056;-37
2022/04/24 09:56:09;;;;;;;1.92;0.40;;;;;;;;;;5054454;28;20032;-36
2022/04/24 09:58:37;;;;;;;0.32;0.28;;;;;;;;;;5054303;28;20020;-36
2022/04/24 10:01:04;;;;;;;0.20;0.20;;;;;;;;;;5054092;28;20067;-36
2022/04/24 10:03:29;;;;;;;5.90;0.22;;;;;;;;;;5054157;28;20499;-36
2022/04/24 10:05:55;;;;;;;0.60;0.35;;;;;;;;;;5054017;28;20033;-37
2022/04/24 10:08:21;;;;;;;1.75;0.63;;;;;;;;;;5053551;28;20112;-37
2022/04/24 10:10:47;;;;;;;0.17;0.17;;;;;;;;;;5054341;28;20029;-36
2022/04/24 10:13:13;;;;;;;5.60;5.10;;;;;;;;;;5053877;28;20045;-36
2022/04/24 10:15:44;;;;;;;1.58;1.48;;;;;;;;;;5053946;28;20059;-36
2022/04/24 10:18:30;;;;;;;2.05;0.50;;;;;;;;;;5052678;28;20107;-36
2022/04/24 10:21:15;;;;;;;2.35;0.40;;;;;;;;;;5053872;28;20029;-36
2022/04/24 10:23:41;;;;;;;1.50;0.40;;;;;;;;;;5056568;28;20385;-37
2022/04/24 10:26:22;;;;;;;4.47;0.30;;;;;;;;;;5053760;28;20094;-36
2022/04/24 10:28:48;;;;;;;4.28;0.82;;;;;;;;;;5054031;28;20033;-36
2022/04/24 10:31:15;;;;;;;2.20;0.98;;;;;;;;;;5052349;28;20426;-36
2022/04/24 10:34:04;;;;;;;1.00;0.30;;;;;;;;;;5053619;28;20450;-36
2022/04/24 10:36:30;;;;;;;2.72;0.38;;;;;;;;;;5053291;28;20116;-36
2022/04/24 10:38:57;;;;;;;1.55;0.45;;;;;;;;;;5053525;28;20024;-36
2022/04/24 10:41:24;;;;;;;1.27;0.40;;;;;;;;;;5052179;28;20060;-37
2022/04/24 10:43:56;;;;;;;4.13;0.73;;;;;;;;;;5053390;28;20098;-36
2022/04/24 10:46:29;;;;;;;0.57;0.43;;;;;;;;;;5053322;28;20067;-36
2022/04/24 10:49:06;;;;;;;2.80;0.30;;;;;;;;;;5053601;28;20025;-36
2022/04/24 10:51:34;;;;;;;2.45;0.90;;;;;;;;;;5053179;28;20037;-36
2022/04/24 10:54:01;;;;;;;0.20;0.20;;;;;;;;;;5053306;28;20021;-36
2022/04/24 10:56:31;;;;;;;0.32;0.22;;;;;;;;;;5053230;28;20033;-37
2022/04/24 10:59:13;;;;;;;2.83;0.30;;;;;;;;;;5053395;28;20024;-36
2022/04/24 11:01:43;;;;;;;2.20;0.30;;;;;;;;;;5053358;28;20033;-36
2022/04/24 11:04:11;;;;;;;3.38;0.40;;;;;;;;;;5053107;28;20082;-37
2022/04/24 11:06:52;;;;;;;1.25;0.40;;;;;;;;;;5053124;28;20097;-36
2022/04/24 11:09:18;;;;;;;1.40;0.60;;;;;;;;;;5052985;28;20089;-36
2022/04/24 11:11:56;;;;;;;4.30;0.40;;;;;;;;;;5052608;28;20044;-36
2022/04/24 11:14:24;;;;;;;0.50;0.50;;;;;;;;;;5052810;28;20037;-36
2022/04/24 11:16:56;;;;;;;0.22;0.22;;;;;;;;;;5052919;28;20096;-37
2022/04/24 11:19:27;;;;;;;0.22;0.22;;;;;;;;;;5052075;28;20025;-37
2022/04/24 11:22:03;;;;;;;1.15;0.60;;;;;;;;;;5052795;28;20060;-36
2022/04/24 11:24:33;;;;;;;3.22;0.95;;;;;;;;;;5052626;28;20060;-37
2022/04/24 11:27:05;;;;;;;0.45;0.45;;;;;;;;;;5052511;28;20048;-37
2022/04/24 11:29:36;;;;;;;1.17;0.60;;;;;;;;;;5052754;28;20364;-36
2022/04/24 11:32:07;;;;;;;1.15;0.60;;;;;;;;;;5052524;28;20041;-37
2022/04/24 11:34:36;;;;;;;3.30;0.50;;;;;;;;;;5051068;28;20040;-36
2022/04/24 11:37:04;;;;;;;1.80;0.50;;;;;;;;;;5052465;28;20017;-37
2022/04/24 11:39:33;;;;;;;6.45;0.77;;;;;;;;;;5052278;28;20025;-36
2022/04/24 11:42:02;;;;;;;2.03;0.77;;;;;;;;;;5052259;28;20017;-36
2022/04/24 11:50:13;;;;;;;7.30;1.30;;;;;;;;;;5052219;28;20025;-36
2022/04/24 11:52:40;;;;;;;1.63;0.65;;;;;;;;;;5052540;28;20032;-37
2022/04/24 11:55:06;;;;;;;1.40;0.40;;;;;;;;;;5052267;28;20017;-37
2022/04/24 11:57:32;;;;;;;3.17;1.00;;;;;;;;;;5051958;28;20395;-36
2022/04/24 11:59:59;;;;;;;2.95;0.40;;;;;;;;;;5051952;28;20020;-37
2022/04/24 12:02:26;;;;;;;4.25;0.45;;;;;;;;;;5051866;28;20037;-36
2022/04/24 12:04:52;;;;;;;1.35;0.60;;;;;;;;;;5051824;28;20059;-36
2022/04/24 12:07:20;;;;;;;4.30;0.63;;;;;;;;;;5051810;28;20036;-36
2022/04/24 12:10:02;;;;;;;1.02;0.57;;;;;;;;;;5051851;28;20164;-36
2022/04/24 12:12:28;;;;;;;1.45;0.60;;;;;;;;;;5051548;28;20052;-37
2022/04/24 12:14:57;;;;;;;2.78;0.28;;;;;;;;;;5051808;28;20070;-36
2022/04/24 12:17:27;;;;;;;4.13;0.43;;;;;;;;;;5050242;28;20056;-37
2022/04/24 12:19:54;;;;;;;1.80;0.57;;;;;;;;;;5051679;28;20078;-36
2022/04/24 12:22:31;;;;;;;2.70;0.65;;;;;;;;;;5050301;28;20031;-37
2022/04/24 12:25:15;;;;;;;1.00;0.40;;;;;;;;;;5051563;28;20098;-37
2022/04/24 12:27:53;;;;;;;6.22;1.42;;;;;;;;;;5051601;28;20509;-36
2022/04/24 12:30:25;;;;;;;5.35;0.90;;;;;;;;;;5051206;28;20131;-37
2022/04/24 12:32:52;;;;;;;0.57;0.50;;;;;;;;;;5051550;28;20097;-37
2022/04/24 12:35:31;;;;;;;1.90;0.55;;;;;;;;;;5051495;28;20021;-36
2022/04/24 12:38:01;;;;;;;3.65;0.55;;;;;;;;;;5051723;28;20033;-36
2022/04/24 12:40:27;;;;;;;1.98;0.57;;;;;;;;;;5051318;28;20043;-37
2022/04/24 12:42:55;;;;;;;1.15;0.45;;;;;;;;;;5051725;28;20455;-37
2022/04/24 12:45:21;;;;;;;5.15;0.70;;;;;;;;;;5051449;28;20036;-36
2022/04/24 12:47:48;;;;;;;4.25;1.15;;;;;;;;;;5051276;28;20029;-37
2022/04/24 12:50:17;;;;;;;1.75;0.47;;;;;;;;;;5051385;28;20045;-36
2022/04/24 12:52:43;;;;;;;2.95;0.40;;;;;;;;;;5051220;28;20029;-36
2022/04/24 12:55:12;;;;;;;3.72;1.60;;;;;;;;;;5051321;28;20017;-37
2022/04/24 12:57:38;;;;;;;5.72;0.88;;;;;;;;;;5051176;28;20055;-37
2022/04/24 13:00:05;;;;;;;0.52;0.52;;;;;;;;;;5051378;28;20361;-36
2022/04/24 13:02:32;;;;;;;0.88;0.40;;;;;;;;;;5051113;28;20033;-37
2022/04/24 13:04:58;;;;;;;1.05;0.50;;;;;;;;;;5051340;28;20079;-36
2022/04/24 13:07:25;;;;;;;0.35;0.30;;;;;;;;;;5051081;28;20108;-36
2022/04/24 13:09:52;;;;;;;0.95;0.47;;;;;;;;;;5051140;28;20068;-36
2022/04/24 13:12:18;;;;;;;8.43;0.52;;;;;;;;;;5050882;28;20041;-36
2022/04/24 13:14:47;;;;;;;1.60;0.60;;;;;;;;;;5051072;28;20049;-37
2022/04/24 13:19:56;;;;;;;1.63;0.77;;;;;;;;;;5051021;28;20027;-36
2022/04/24 13:22:22;;;;;;;1.42;0.40;;;;;;;;;;5049484;28;20021;-37
2022/04/24 13:24:48;;;;;;;1.42;0.50;;;;;;;;;;5051037;28;20037;-36
2022/04/24 13:27:14;;;;;;;0.43;0.38;;;;;;;;;;5050944;28;20036;-37
2022/04/24 13:29:40;;;;;;;5.85;1.00;;;;;;;;;;5050819;28;20029;-37
2022/04/24 13:32:07;;;;;;;3.15;0.80;;;;;;;;;;5049774;28;20056;-37
2022/04/24 13:34:34;;;;;;;2.05;0.88;;;;;;;;;;5050689;28;20036;-36
2022/04/24 13:39:44;;;;;;;4.50;0.82;;;;;;;;;;5051157;28;20091;-36
2022/04/24 13:42:13;;;;;;;2.88;0.77;;;;;;;;;;5049560;28;20021;-37
2022/04/24 13:44:38;;;;;;;6.20;0.80;;;;;;;;;;5053245;28;20091;-37
2022/04/24 13:47:06;;;;;;;0.50;0.50;;;;;;;;;;5054701;28;20029;-37
2022/04/24 13:49:33;;;;;;;5.38;0.77;;;;;;;;;;5054353;28;20475;-36
2022/04/24 13:51:59;;;;;;;6.22;0.60;;;;;;;;;;5054411;28;20059;-37
2022/04/24 13:54:26;;;;;;;8.55;1.20;;;;;;;;;;5053125;28;20064;-37
2022/04/24 13:56:52;;;;;;;0.65;0.50;;;;;;;;;;5054290;28;20055;-36
2022/04/24 13:59:18;;;;;;;1.00;0.32;;;;;;;;;;5054399;28;20357;-36
2022/04/24 14:01:46;;;;;;;1.08;0.30;;;;;;;;;;5054281;28;20047;-36
2022/04/24 14:04:12;;;;;;;1.95;1.65;;;;;;;;;;5054170;28;20025;-36
2022/04/24 14:06:42;;;;;;;1.20;0.40;;;;;;;;;;5054130;28;20562;-36
2022/04/24 14:09:08;;;;;;;0.90;0.55;;;;;;;;;;5054369;28;20021;-37
2022/04/24 14:11:37;;;;;;;0.30;0.20;;;;;;;;;;5053846;28;20037;-36
2022/04/24 14:14:03;;;;;;;0.75;0.45;;;;;;;;;;5054119;28;20037;-37
2022/04/24 14:16:30;;;;;;;0.40;0.40;;;;;;;;;;5053899;28;20024;-36
2022/04/24 14:18:55;;;;;;;1.33;0.60;;;;;;;;;;5053885;28;20027;-37
2022/04/24 14:21:21;;;;;;;2.47;0.43;;;;;;;;;;5053792;28;20422;-37
2022/04/24 14:23:46;;;;;;;1.88;0.65;;;;;;;;;;5054238;28;20025;-37
2022/04/24 14:26:11;;;;;;;1.85;0.40;;;;;;;;;;5054001;28;20072;-37
2022/04/24 14:28:38;;;;;;;3.33;0.40;;;;;;;;;;5053706;28;20052;-36
2022/04/24 14:31:04;;;;;;;4.55;0.65;;;;;;;;;;5053755;28;20021;-37
2022/04/24 14:33:30;;;;;;;6.55;0.80;;;;;;;;;;5053581;28;20490;-36
2022/04/24 14:35:55;;;;;;;1.48;0.32;;;;;;;;;;5053711;28;20029;-36
2022/04/24 14:38:21;;;;;;;9.30;0.60;;;;;;;;;;5053484;28;20025;-37
2022/04/24 14:40:47;;;;;;;1.75;0.28;;;;;;;;;;5053402;28;20039;-37
2022/04/24 14:43:14;;;;;;;1.02;0.40;;;;;;;;;;5053521;28;20111;-37
2022/04/24 14:56:41;;;;;;;1.75;0.50;;;;;;;;;;5053492;28;20107;-37
2022/04/24 14:59:11;;;;;;;0.95;0.47;;;;;;;;;;5053224;28;20024;-37
2022/04/24 15:01:39;;;;;;;0.93;0.50;;;;;;;;;;5053295;28;20365;-37
2022/04/24 15:04:04;;;;;;;2.90;1.35;;;;;;;;;;5053136;28;20075;-36